Time;durP1;ratioP1;P1;durP2;ratioP2;P2;SDS_P1;SDS_P2;PMS_P1;PMS_P2;Temp;Humidity;BMP_temperature;BMP_pressure;BME280_temperature;BME280_humidity;BME280_pressure;Samples;Min_cycle;Max_cycle;Signal;HPM_P1;HPM_P2
2022/03/12 00:00:50;;;;;;;11.43;7.82;;;;;;;;;;5074584;28;20246;-62
2022/03/12 00:03:16;;;;;;;8.43;6.93;;;;;;;;;;5073231;28;20041;-61
2022/03/12 00:05:53;;;;;;;9.90;7.25;;;;;;;;;;5074053;28;20044;-63
2022/03/12 00:08:29;;;;;;;9.43;7.20;;;;;;;;;;5074472;28;20120;-62
2022/03/12 00:10:55;;;;;;;8.55;6.82;;;;;;;;;;5074442;28;20510;-63
2022/03/12 00:13:22;;;;;;;7.40;6.60;;;;;;;;;;5074044;28;20032;-59
2022/03/12 00:15:50;;;;;;;12.35;7.25;;;;;;;;;;5074684;28;20183;-64
2022/03/12 00:18:20;;;;;;;8.65;7.07;;;;;;;;;;5075024;28;20509;-65
2022/03/12 00:20:48;;;;;;;9.45;7.38;;;;;;;;;;5074902;28;20037;-65
2022/03/12 00:25:49;;;;;;;9.45;7.57;;;;;;;;;;5087070;22;20052;-61
2022/03/12 00:28:18;;;;;;;10.05;6.65;;;;;;;;;;5055167;28;20041;-63
2022/03/12 00:30:46;;;;;;;9.52;6.78;;;;;;;;;;5054345;28;20123;-63
2022/03/12 00:33:12;;;;;;;9.73;6.57;;;;;;;;;;5053973;28;20037;-63
2022/03/12 00:35:38;;;;;;;8.90;6.95;;;;;;;;;;5036309;28;20029;-63
2022/03/12 00:38:04;;;;;;;9.23;7.25;;;;;;;;;;5053416;28;20106;-63
2022/03/12 00:40:31;;;;;;;10.70;7.13;;;;;;;;;;5053532;28;20371;-63
2022/03/12 00:42:57;;;;;;;10.18;7.15;;;;;;;;;;5053222;28;20041;-63
2022/03/12 00:45:24;;;;;;;8.68;6.88;;;;;;;;;;5035456;28;20044;-63
2022/03/12 00:47:50;;;;;;;9.00;7.32;;;;;;;;;;5053830;28;20040;-63
2022/03/12 00:50:17;;;;;;;7.63;6.72;;;;;;;;;;5053308;28;20048;-63
2022/03/12 00:52:43;;;;;;;10.65;7.28;;;;;;;;;;5053303;28;20065;-63
2022/03/12 00:55:09;;;;;;;10.57;7.07;;;;;;;;;;5053185;28;20080;-63
2022/03/12 00:57:35;;;;;;;9.88;6.95;;;;;;;;;;5053277;28;20037;-64
2022/03/12 01:00:02;;;;;;;12.85;7.15;;;;;;;;;;5035796;28;20549;-63
2022/03/12 01:02:28;;;;;;;9.50;7.40;;;;;;;;;;5053511;28;20037;-65
2022/03/12 01:04:54;;;;;;;11.85;7.25;;;;;;;;;;5035709;28;20044;-60
2022/03/12 01:07:20;;;;;;;9.00;7.07;;;;;;;;;;5053040;28;20105;-60
2022/03/12 01:09:46;;;;;;;11.38;7.47;;;;;;;;;;5053325;28;20037;-60
2022/03/12 01:12:13;;;;;;;10.10;7.22;;;;;;;;;;5053101;28;20047;-60
2022/03/12 01:14:39;;;;;;;9.82;7.18;;;;;;;;;;5035460;28;20045;-60
2022/03/12 01:17:06;;;;;;;7.85;6.97;;;;;;;;;;5054647;28;20072;-61
2022/03/12 01:19:34;;;;;;;7.47;6.70;;;;;;;;;;5054089;28;20044;-62
2022/03/12 01:22:02;;;;;;;10.65;7.70;;;;;;;;;;5053872;28;20095;-61
2022/03/12 01:24:28;;;;;;;8.65;6.95;;;;;;;;;;5053525;28;20452;-61
2022/03/12 01:26:55;;;;;;;10.55;6.93;;;;;;;;;;5037187;28;20080;-63
2022/03/12 01:29:21;;;;;;;10.20;7.03;;;;;;;;;;5052607;28;20066;-62
2022/03/12 01:31:47;;;;;;;8.05;7.18;;;;;;;;;;5052304;28;20044;-62
2022/03/12 01:34:13;;;;;;;9.48;7.18;;;;;;;;;;5052452;28;20044;-61
2022/03/12 01:36:39;;;;;;;8.25;6.75;;;;;;;;;;5052380;28;20045;-63
2022/03/12 01:39:05;;;;;;;7.95;6.57;;;;;;;;;;5051996;28;20120;-61
2022/03/12 01:41:32;;;;;;;10.68;7.32;;;;;;;;;;5052105;28;20041;-63
2022/03/12 01:44:00;;;;;;;8.98;7.32;;;;;;;;;;5052197;28;20520;-62
2022/03/12 01:46:29;;;;;;;9.93;6.88;;;;;;;;;;5052567;28;20041;-63
2022/03/12 01:48:59;;;;;;;8.55;6.80;;;;;;;;;;5034134;28;20041;-63
2022/03/12 01:51:29;;;;;;;9.15;7.70;;;;;;;;;;5052199;28;20037;-63
2022/03/12 01:53:55;;;;;;;10.40;6.90;;;;;;;;;;5052040;28;20043;-62
2022/03/12 01:56:25;;;;;;;9.00;6.88;;;;;;;;;;5052774;28;20052;-63
2022/03/12 01:58:51;;;;;;;7.60;6.80;;;;;;;;;;5062147;22;20111;-65
2022/03/12 02:01:19;;;;;;;11.43;7.20;;;;;;;;;;5052117;28;20040;-59
2022/03/12 02:03:46;;;;;;;11.55;7.53;;;;;;;;;;5052722;28;20486;-59
2022/03/12 02:06:16;;;;;;;8.35;6.82;;;;;;;;;;5052001;28;20545;-58
2022/03/12 02:08:43;;;;;;;8.38;6.70;;;;;;;;;;5051680;28;20341;-59
2022/03/12 02:11:09;;;;;;;15.23;6.97;;;;;;;;;;5051829;28;20044;-60
2022/03/12 02:13:37;;;;;;;10.88;7.47;;;;;;;;;;5051943;28;20402;-60
2022/03/12 02:16:08;;;;;;;10.82;7.38;;;;;;;;;;5051723;28;20040;-60
2022/03/12 02:18:35;;;;;;;8.15;7.28;;;;;;;;;;5050336;28;20048;-60
2022/03/12 02:21:01;;;;;;;8.88;7.22;;;;;;;;;;5051838;28;20512;-60
2022/03/12 02:23:27;;;;;;;10.48;7.43;;;;;;;;;;5052023;28;20044;-60
2022/03/12 02:25:53;;;;;;;11.35;7.70;;;;;;;;;;5050813;28;20056;-58
2022/03/12 02:28:19;;;;;;;8.55;7.03;;;;;;;;;;5051710;28;20128;-58
2022/03/12 02:30:55;;;;;;;10.57;7.80;;;;;;;;;;5052225;28;20037;-59
2022/03/12 02:33:27;;;;;;;9.98;7.07;;;;;;;;;;5051409;28;20040;-59
2022/03/12 02:35:53;;;;;;;9.77;7.40;;;;;;;;;;5051945;28;20044;-60
2022/03/12 02:38:21;;;;;;;9.35;7.63;;;;;;;;;;5051502;28;20037;-60
2022/03/12 02:40:48;;;;;;;10.50;7.25;;;;;;;;;;5050081;28;20044;-59
2022/03/12 02:43:14;;;;;;;8.80;7.43;;;;;;;;;;5050225;28;20398;-60
2022/03/12 02:45:41;;;;;;;8.15;6.97;;;;;;;;;;5051401;28;20080;-59
2022/03/12 02:48:11;;;;;;;9.43;7.18;;;;;;;;;;5051031;28;20041;-59
2022/03/12 02:50:37;;;;;;;10.70;6.82;;;;;;;;;;5051211;28;20037;-59
2022/03/12 02:53:05;;;;;;;9.18;7.05;;;;;;;;;;5051441;28;20437;-58
2022/03/12 02:55:34;;;;;;;10.88;7.40;;;;;;;;;;5051406;28;20091;-60
2022/03/12 02:58:00;;;;;;;13.20;7.63;;;;;;;;;;5051531;28;20094;-60
2022/03/12 03:00:27;;;;;;;12.27;7.60;;;;;;;;;;5050951;28;20077;-60
2022/03/12 03:02:53;;;;;;;9.57;7.28;;;;;;;;;;5050933;28;20045;-59
2022/03/12 03:05:30;;;;;;;8.80;7.32;;;;;;;;;;5051312;28;20056;-60
2022/03/12 03:07:57;;;;;;;10.65;7.05;;;;;;;;;;5051326;28;20048;-59
2022/03/12 03:10:35;;;;;;;9.85;7.28;;;;;;;;;;5051070;28;20151;-60
2022/03/12 03:13:16;;;;;;;10.68;7.72;;;;;;;;;;5051282;28;20401;-59
2022/03/12 03:15:46;;;;;;;10.88;7.68;;;;;;;;;;5050983;28;20559;-59
2022/03/12 03:18:13;;;;;;;13.02;7.38;;;;;;;;;;5051283;28;20045;-60
2022/03/12 03:23:26;;;;;;;11.00;7.30;;;;;;;;;;4997206;22;20075;-84
2022/03/12 03:25:53;;;;;;;7.82;6.68;;;;;;;;;;5059232;28;20066;-85
2022/03/12 03:28:19;;;;;;;8.77;7.55;;;;;;;;;;5037924;28;20138;-85
2022/03/12 03:30:45;;;;;;;10.90;7.65;;;;;;;;;;5043781;28;20102;-84
2022/03/12 03:33:13;;;;;;;8.20;7.25;;;;;;;;;;5043624;28;20076;-85
2022/03/12 03:35:39;;;;;;;11.77;7.47;;;;;;;;;;5042919;28;20076;-85
2022/03/12 03:38:06;;;;;;;10.32;7.88;;;;;;;;;;5043633;28;20070;-84
2022/03/12 03:40:33;;;;;;;9.20;7.45;;;;;;;;;;5044001;28;20037;-85
2022/03/12 03:42:59;;;;;;;9.13;7.38;;;;;;;;;;4996644;28;20044;-85
2022/03/12 03:45:27;;;;;;;10.68;7.40;;;;;;;;;;5023937;28;20048;-84
2022/03/12 03:47:53;;;;;;;8.75;6.90;;;;;;;;;;5007676;28;20412;-85
2022/03/12 03:50:25;;;;;;;9.52;7.22;;;;;;;;;;5023673;28;20157;-84
2022/03/12 03:52:51;;;;;;;10.00;7.05;;;;;;;;;;5023786;28;20887;-85
2022/03/12 03:55:17;;;;;;;11.48;7.25;;;;;;;;;;5041320;28;20422;-85
2022/03/12 03:57:43;;;;;;;12.45;7.70;;;;;;;;;;5022290;28;20048;-83
2022/03/12 04:00:11;;;;;;;12.80;7.50;;;;;;;;;;5005606;28;20049;-85
2022/03/12 04:02:37;;;;;;;10.45;7.47;;;;;;;;;;5006610;28;20047;-85
2022/03/12 04:05:03;;;;;;;10.10;7.22;;;;;;;;;;5007155;28;20500;-84
2022/03/12 04:07:29;;;;;;;11.45;7.13;;;;;;;;;;5023680;28;20057;-85
2022/03/12 04:09:55;;;;;;;9.10;7.82;;;;;;;;;;5023461;28;20140;-85
2022/03/12 04:12:22;;;;;;;11.05;7.10;;;;;;;;;;5022791;28;20050;-85
2022/03/12 04:14:48;;;;;;;10.75;7.43;;;;;;;;;;5023289;28;20568;-85
2022/03/12 04:17:15;;;;;;;9.82;7.07;;;;;;;;;;5023245;28;20045;-85
2022/03/12 04:19:42;;;;;;;10.55;7.50;;;;;;;;;;5006819;28;20087;-85
2022/03/12 04:22:08;;;;;;;11.15;7.68;;;;;;;;;;5006510;28;20049;-85
2022/03/12 04:24:35;;;;;;;10.05;7.97;;;;;;;;;;5041357;28;20049;-85
2022/03/12 04:27:02;;;;;;;11.18;7.55;;;;;;;;;;5041225;28;20179;-85
2022/03/12 04:29:28;;;;;;;10.50;7.97;;;;;;;;;;5040995;28;20037;-84
2022/03/12 04:31:54;;;;;;;10.07;7.80;;;;;;;;;;5040484;28;20041;-85
2022/03/12 04:34:21;;;;;;;12.02;9.00;;;;;;;;;;5023227;28;20042;-84
2022/03/12 04:36:47;;;;;;;10.73;7.55;;;;;;;;;;5023646;28;20128;-85
2022/03/12 04:39:13;;;;;;;8.57;7.47;;;;;;;;;;5023002;28;20092;-84
2022/03/12 04:41:39;;;;;;;10.20;7.25;;;;;;;;;;5040402;28;20501;-84
2022/03/12 04:44:06;;;;;;;10.15;7.68;;;;;;;;;;5010375;28;20554;-85
2022/03/12 04:46:33;;;;;;;9.93;7.53;;;;;;;;;;5026920;28;20195;-84
2022/03/12 04:49:00;;;;;;;10.07;7.57;;;;;;;;;;5043745;28;20434;-85
2022/03/12 04:51:25;;;;;;;12.20;7.63;;;;;;;;;;5010324;28;20049;-85
2022/03/12 04:53:58;;;;;;;11.40;7.93;;;;;;;;;;5024427;28;20077;-85
2022/03/12 04:56:25;;;;;;;9.82;7.70;;;;;;;;;;5024428;28;20073;-85
2022/03/12 04:58:53;;;;;;;11.93;8.07;;;;;;;;;;5024619;28;20045;-85
2022/03/12 05:01:20;;;;;;;11.10;7.80;;;;;;;;;;5008565;28;20076;-84
2022/03/12 05:03:46;;;;;;;10.40;7.93;;;;;;;;;;5008113;28;20046;-85
2022/03/12 05:06:13;;;;;;;9.07;7.25;;;;;;;;;;5026755;28;20523;-83
2022/03/12 05:08:39;;;;;;;10.40;8.25;;;;;;;;;;5057101;28;20056;-83
2022/03/12 05:11:05;;;;;;;9.45;7.53;;;;;;;;;;5041185;28;20080;-85
2022/03/12 05:13:31;;;;;;;8.95;7.45;;;;;;;;;;5034449;28;20045;-84
2022/03/12 05:16:03;;;;;;;9.98;7.35;;;;;;;;;;5006549;28;20045;-85
2022/03/12 05:18:30;;;;;;;11.48;7.43;;;;;;;;;;5006347;28;20119;-85
2022/03/12 05:20:56;;;;;;;10.63;7.60;;;;;;;;;;5022370;28;20125;-84
2022/03/12 05:23:22;;;;;;;9.50;7.30;;;;;;;;;;5022230;28;20049;-85
2022/03/12 05:25:49;;;;;;;10.48;7.28;;;;;;;;;;5022289;28;20044;-84
2022/03/12 05:28:22;;;;;;;12.65;7.55;;;;;;;;;;5021680;28;20101;-84
2022/03/12 05:30:48;;;;;;;8.88;7.15;;;;;;;;;;5005826;28;20060;-85
2022/03/12 05:33:19;;;;;;;9.98;6.95;;;;;;;;;;5005220;28;20041;-84
2022/03/12 05:35:46;;;;;;;11.70;7.93;;;;;;;;;;5006057;28;20490;-84
2022/03/12 05:38:12;;;;;;;12.02;7.57;;;;;;;;;;5023051;28;20116;-84
2022/03/12 05:40:40;;;;;;;9.27;7.20;;;;;;;;;;5005898;28;20474;-84
2022/03/12 05:43:12;;;;;;;12.73;7.35;;;;;;;;;;5021522;28;20496;-85
2022/03/12 05:45:39;;;;;;;9.70;7.28;;;;;;;;;;5005538;28;20091;-83
2022/03/12 05:48:09;;;;;;;11.65;7.40;;;;;;;;;;5005561;28;20038;-84
2022/03/12 05:50:39;;;;;;;10.13;7.93;;;;;;;;;;5021743;28;20068;-84
2022/03/12 05:53:09;;;;;;;9.50;7.53;;;;;;;;;;5021059;28;20411;-84
2022/03/12 05:55:39;;;;;;;10.82;7.57;;;;;;;;;;5005157;28;20045;-84
2022/03/12 05:58:09;;;;;;;10.73;7.60;;;;;;;;;;5005158;28;20440;-84
2022/03/12 06:00:35;;;;;;;10.90;7.80;;;;;;;;;;5021669;28;20067;-85
2022/03/12 06:03:02;;;;;;;10.93;7.13;;;;;;;;;;5009178;28;20048;-85
2022/03/12 06:05:28;;;;;;;8.88;7.30;;;;;;;;;;5019127;28;20435;-84
2022/03/12 06:07:54;;;;;;;9.75;7.55;;;;;;;;;;5022940;28;20037;-85
2022/03/12 06:10:23;;;;;;;10.43;7.20;;;;;;;;;;5039834;28;20041;-85
2022/03/12 06:12:51;;;;;;;11.25;7.75;;;;;;;;;;5022843;28;20048;-85
2022/03/12 06:15:18;;;;;;;8.40;7.50;;;;;;;;;;5039784;28;20052;-85
2022/03/12 06:17:45;;;;;;;10.35;7.32;;;;;;;;;;5049147;28;20566;-85
2022/03/12 06:20:12;;;;;;;10.63;7.55;;;;;;;;;;5033697;28;20407;-85
2022/03/12 06:22:39;;;;;;;10.75;7.50;;;;;;;;;;5039071;28;20080;-84
2022/03/12 06:25:06;;;;;;;8.30;7.20;;;;;;;;;;5039804;28;20036;-85
2022/03/12 06:27:32;;;;;;;11.85;7.70;;;;;;;;;;5023170;28;20541;-84
2022/03/12 06:29:59;;;;;;;8.45;7.43;;;;;;;;;;5039357;28;20041;-85
2022/03/12 06:32:26;;;;;;;9.27;7.45;;;;;;;;;;5011032;28;20045;-85
2022/03/12 06:34:52;;;;;;;9.15;6.90;;;;;;;;;;5057382;28;20575;-85
2022/03/12 06:37:18;;;;;;;9.82;7.68;;;;;;;;;;5036727;28;20037;-85
2022/03/12 06:39:44;;;;;;;11.05;7.45;;;;;;;;;;5027285;28;20041;-84
2022/03/12 06:42:10;;;;;;;10.52;7.32;;;;;;;;;;5031343;28;20085;-83
2022/03/12 06:44:37;;;;;;;12.63;7.88;;;;;;;;;;5028469;28;20487;-85
2022/03/12 06:47:07;;;;;;;11.85;7.68;;;;;;;;;;5008347;28;20555;-84
2022/03/12 06:49:33;;;;;;;8.75;7.47;;;;;;;;;;5000304;28;20421;-84
2022/03/12 06:51:59;;;;;;;11.55;8.15;;;;;;;;;;4990622;28;20042;-84
2022/03/12 06:54:25;;;;;;;10.48;7.70;;;;;;;;;;5015208;28;20041;-86
2022/03/12 06:56:52;;;;;;;9.57;7.53;;;;;;;;;;5002884;28;20037;-84
2022/03/12 06:59:18;;;;;;;9.70;6.78;;;;;;;;;;5028257;28;20040;-82
2022/03/12 07:01:44;;;;;;;10.80;7.00;;;;;;;;;;5036642;28;20029;-82
2022/03/12 07:04:10;;;;;;;11.32;7.97;;;;;;;;;;5032565;28;20061;-84
2022/03/12 07:06:37;;;;;;;10.10;7.47;;;;;;;;;;4997963;28;20080;-84
2022/03/12 07:09:03;;;;;;;12.77;8.00;;;;;;;;;;5036265;28;20045;-84
2022/03/12 07:11:31;;;;;;;10.40;7.60;;;;;;;;;;5038930;28;20045;-83
2022/03/12 07:13:57;;;;;;;9.88;7.35;;;;;;;;;;5023828;28;20037;-84
2022/03/12 07:16:23;;;;;;;11.45;7.70;;;;;;;;;;5036771;28;20041;-82
2022/03/12 07:18:49;;;;;;;9.27;7.88;;;;;;;;;;5019248;28;20064;-84
2022/03/12 07:21:15;;;;;;;12.60;7.57;;;;;;;;;;5019767;28;20198;-84
2022/03/12 07:23:42;;;;;;;12.73;7.90;;;;;;;;;;4996332;28;20038;-85
2022/03/12 07:26:08;;;;;;;20.55;14.52;;;;;;;;;;4998821;28;20471;-85
2022/03/12 07:28:34;;;;;;;89.25;53.38;;;;;;;;;;5041428;28;20416;-85
2022/03/12 07:31:01;;;;;;;251.30;132.15;;;;;;;;;;5018180;28;20049;-85
2022/03/12 07:33:28;;;;;;;310.23;162.10;;;;;;;;;;5031922;28;20069;-84
2022/03/12 07:35:54;;;;;;;366.27;186.27;;;;;;;;;;5013255;28;20044;-85
2022/03/12 07:38:20;;;;;;;346.67;176.90;;;;;;;;;;4997484;28;20033;-85
2022/03/12 07:40:46;;;;;;;337.60;164.05;;;;;;;;;;5036805;28;20499;-85
2022/03/12 07:43:12;;;;;;;293.05;141.43;;;;;;;;;;5038486;28;20051;-84
2022/03/12 07:45:39;;;;;;;248.05;120.38;;;;;;;;;;5038072;28;20059;-85
2022/03/12 07:48:07;;;;;;;138.85;69.15;;;;;;;;;;5022318;28;20037;-85
2022/03/12 07:50:34;;;;;;;76.22;38.03;;;;;;;;;;5021494;28;20045;-84
2022/03/12 07:53:00;;;;;;;65.65;34.13;;;;;;;;;;5021780;28;20053;-84
2022/03/12 07:55:26;;;;;;;22.70;13.20;;;;;;;;;;5021957;28;20112;-89
2022/03/12 07:57:52;;;;;;;17.42;11.02;;;;;;;;;;5034131;28;20029;-84
2022/03/12 08:00:19;;;;;;;14.88;9.60;;;;;;;;;;5036864;28;20024;-82
2022/03/12 08:02:46;;;;;;;12.80;8.43;;;;;;;;;;5038958;28;20053;-82
2022/03/12 08:05:13;;;;;;;15.57;9.98;;;;;;;;;;5016573;28;20041;-84
2022/03/12 08:07:39;;;;;;;18.25;9.32;;;;;;;;;;4997024;28;20033;-84
2022/03/12 08:10:06;;;;;;;10.75;8.73;;;;;;;;;;5025766;28;20095;-85
2022/03/12 08:12:35;;;;;;;11.20;8.10;;;;;;;;;;5014816;28;20045;-84
2022/03/12 08:15:05;;;;;;;11.95;8.90;;;;;;;;;;5002453;28;20038;-84
2022/03/12 08:17:31;;;;;;;10.95;8.68;;;;;;;;;;5012727;28;20045;-84
2022/03/12 08:19:58;;;;;;;15.02;8.63;;;;;;;;;;5023986;28;20037;-84
2022/03/12 08:22:24;;;;;;;10.18;8.23;;;;;;;;;;5021393;28;20064;-83
2022/03/12 08:24:50;;;;;;;10.43;8.40;;;;;;;;;;5019086;28;20803;-84
2022/03/12 08:27:16;;;;;;;12.57;8.57;;;;;;;;;;5019421;28;20048;-83
2022/03/12 08:29:44;;;;;;;13.15;8.75;;;;;;;;;;5023627;28;20063;-83
2022/03/12 08:32:10;;;;;;;11.35;8.70;;;;;;;;;;5011786;28;20183;-84
2022/03/12 08:34:36;;;;;;;15.07;8.77;;;;;;;;;;5058694;28;20037;-84
2022/03/12 08:37:06;;;;;;;12.05;9.38;;;;;;;;;;5020384;28;20069;-83
2022/03/12 08:39:32;;;;;;;11.38;8.48;;;;;;;;;;5001637;28;20044;-83
2022/03/12 08:41:58;;;;;;;13.02;9.02;;;;;;;;;;5020330;28;20526;-84
2022/03/12 08:44:24;;;;;;;13.32;8.60;;;;;;;;;;5019615;28;20034;-84
2022/03/12 08:46:51;;;;;;;13.35;8.77;;;;;;;;;;5006399;28;20048;-83
2022/03/12 08:49:18;;;;;;;11.63;9.10;;;;;;;;;;5038352;28;20033;-83
2022/03/12 08:51:44;;;;;;;13.93;9.25;;;;;;;;;;5030583;28;20614;-83
2022/03/12 08:54:10;;;;;;;12.93;10.05;;;;;;;;;;5009609;28;20054;-84
2022/03/12 08:56:37;;;;;;;10.68;9.27;;;;;;;;;;5006556;28;20041;-82
2022/03/12 08:59:04;;;;;;;10.93;8.80;;;;;;;;;;5003597;28;20132;-83
2022/03/12 09:01:30;;;;;;;10.75;9.07;;;;;;;;;;4987877;28;20045;-81
2022/03/12 09:03:57;;;;;;;10.63;9.25;;;;;;;;;;5003229;28;20046;-82
2022/03/12 09:06:26;;;;;;;10.02;9.02;;;;;;;;;;5021595;28;20073;-82
2022/03/12 09:08:53;;;;;;;11.48;9.50;;;;;;;;;;5006019;28;20239;-83
2022/03/12 09:11:19;;;;;;;12.77;9.57;;;;;;;;;;5027797;28;20494;-82
2022/03/12 09:13:46;;;;;;;10.48;9.38;;;;;;;;;;5032133;28;20041;-83
2022/03/12 09:16:14;;;;;;;10.90;9.15;;;;;;;;;;5022062;28;20046;-83
2022/03/12 09:18:41;;;;;;;10.60;8.63;;;;;;;;;;5040046;28;20288;-83
2022/03/12 09:21:08;;;;;;;11.95;9.63;;;;;;;;;;5003049;28;20522;-83
2022/03/12 09:23:34;;;;;;;12.50;9.73;;;;;;;;;;5012726;28;20045;-83
2022/03/12 09:26:00;;;;;;;10.73;9.02;;;;;;;;;;5016543;28;20090;-85
2022/03/12 09:28:27;;;;;;;11.93;10.02;;;;;;;;;;5017089;28;20046;-83
2022/03/12 09:30:53;;;;;;;11.13;9.27;;;;;;;;;;5002173;28;20056;-83
2022/03/12 09:33:23;;;;;;;11.98;9.00;;;;;;;;;;5015824;28;20033;-83
2022/03/12 09:35:50;;;;;;;10.93;9.43;;;;;;;;;;5014296;28;20041;-83
2022/03/12 09:38:16;;;;;;;12.52;9.52;;;;;;;;;;5022590;28;20468;-83
2022/03/12 09:40:43;;;;;;;12.80;9.95;;;;;;;;;;5001304;28;20072;-83
2022/03/12 09:43:10;;;;;;;11.55;9.57;;;;;;;;;;5006798;28;20095;-83
2022/03/12 09:45:36;;;;;;;14.43;9.73;;;;;;;;;;5019253;28;20132;-83
2022/03/12 09:48:02;;;;;;;10.40;9.25;;;;;;;;;;5016899;28;20045;-85
2022/03/12 09:50:29;;;;;;;10.70;9.02;;;;;;;;;;5017890;28;20520;-84
2022/03/12 09:52:55;;;;;;;11.75;8.73;;;;;;;;;;5017163;28;20119;-83
2022/03/12 09:55:22;;;;;;;13.30;9.80;;;;;;;;;;5020265;28;20056;-83
2022/03/12 09:57:49;;;;;;;9.68;8.68;;;;;;;;;;5030329;28;20392;-82
2022/03/12 10:00:16;;;;;;;11.45;9.25;;;;;;;;;;5025969;28;20029;-83
2022/03/12 10:02:42;;;;;;;11.50;9.52;;;;;;;;;;5033324;28;20037;-83
2022/03/12 10:05:13;;;;;;;11.27;9.43;;;;;;;;;;5018542;28;20523;-84
2022/03/12 10:07:41;;;;;;;10.68;9.57;;;;;;;;;;5000190;28;20086;-84
2022/03/12 10:10:11;;;;;;;13.98;9.57;;;;;;;;;;5011486;28;20038;-84
2022/03/12 10:12:37;;;;;;;12.18;9.35;;;;;;;;;;4995586;28;20518;-84
2022/03/12 10:15:03;;;;;;;12.80;9.77;;;;;;;;;;5001711;28;20046;-84
2022/03/12 10:17:30;;;;;;;10.80;9.40;;;;;;;;;;5018222;28;20052;-84
2022/03/12 10:19:57;;;;;;;11.45;9.70;;;;;;;;;;5015417;28;20040;-85
2022/03/12 10:22:23;;;;;;;11.30;9.93;;;;;;;;;;4998405;28;20079;-85
2022/03/12 10:24:50;;;;;;;13.50;10.02;;;;;;;;;;4989822;28;20083;-85
2022/03/12 10:27:16;;;;;;;10.80;9.70;;;;;;;;;;5014608;28;20034;-84
2022/03/12 10:29:42;;;;;;;11.00;8.90;;;;;;;;;;4998016;28;20408;-85
2022/03/12 10:32:23;;;;;;;11.45;10.05;;;;;;;;;;4998384;28;20045;-82
2022/03/12 10:34:56;;;;;;;10.48;9.15;;;;;;;;;;5014788;28;20127;-84
2022/03/12 10:37:26;;;;;;;12.55;9.48;;;;;;;;;;5014138;28;20049;-84
2022/03/12 10:40:03;;;;;;;13.35;8.95;;;;;;;;;;5013915;28;20038;-84
2022/03/12 10:42:31;;;;;;;25.38;11.23;;;;;;;;;;5012431;28;20049;-84
2022/03/12 10:45:08;;;;;;;10.65;9.07;;;;;;;;;;4989975;28;20034;-84
2022/03/12 10:47:39;;;;;;;10.02;8.68;;;;;;;;;;5014566;28;20125;-83
2022/03/12 10:50:06;;;;;;;13.77;8.63;;;;;;;;;;5014095;28;20704;-85
2022/03/12 10:52:34;;;;;;;11.70;9.18;;;;;;;;;;5012482;28;20041;-85
2022/03/12 10:55:07;;;;;;;10.50;8.70;;;;;;;;;;4997363;28;20048;-85
2022/03/12 10:57:34;;;;;;;9.93;8.82;;;;;;;;;;5013692;28;20045;-84
2022/03/12 11:00:00;;;;;;;9.90;8.65;;;;;;;;;;5013792;28;20041;-85
2022/03/12 11:02:26;;;;;;;10.23;8.93;;;;;;;;;;5010127;28;20073;-80
2022/03/12 11:04:52;;;;;;;11.73;9.02;;;;;;;;;;5028385;28;20077;-78
2022/03/12 11:07:30;;;;;;;10.25;9.15;;;;;;;;;;5031289;28;20064;-81
2022/03/12 11:09:56;;;;;;;10.32;8.98;;;;;;;;;;5000060;28;20081;-86
2022/03/12 11:12:37;;;;;;;10.35;8.68;;;;;;;;;;4996109;28;20488;-86
2022/03/12 11:15:11;;;;;;;11.02;9.38;;;;;;;;;;5001793;28;20357;-86
2022/03/12 11:17:45;;;;;;;9.98;9.02;;;;;;;;;;4997403;28;20570;-86
2022/03/12 11:20:21;;;;;;;10.18;8.35;;;;;;;;;;5018029;28;20067;-86
2022/03/12 11:22:51;;;;;;;10.52;8.15;;;;;;;;;;4984882;28;20050;-85
2022/03/12 11:25:21;;;;;;;9.73;8.73;;;;;;;;;;5001465;28;20037;-85
2022/03/12 11:27:50;;;;;;;9.45;8.40;;;;;;;;;;5016639;28;20041;-85
2022/03/12 11:30:20;;;;;;;9.77;8.80;;;;;;;;;;5022351;28;20045;-82
2022/03/12 11:32:48;;;;;;;10.25;8.25;;;;;;;;;;5039559;28;20041;-82
2022/03/12 11:35:17;;;;;;;9.48;8.35;;;;;;;;;;5036533;28;20044;-85
2022/03/12 11:37:43;;;;;;;10.00;8.23;;;;;;;;;;5026827;28;20053;-85
2022/03/12 11:40:12;;;;;;;9.35;7.63;;;;;;;;;;5016888;28;20072;-87
2022/03/12 11:42:41;;;;;;;9.98;7.63;;;;;;;;;;5016464;28;20100;-84
2022/03/12 11:45:14;;;;;;;8.68;7.57;;;;;;;;;;5013565;28;20475;-84
2022/03/12 11:47:41;;;;;;;10.25;8.07;;;;;;;;;;4997727;28;20033;-85
2022/03/12 11:50:12;;;;;;;8.07;7.28;;;;;;;;;;4993797;28;20063;-84
2022/03/12 11:52:38;;;;;;;9.00;7.88;;;;;;;;;;4998033;28;20045;-84
2022/03/12 11:55:12;;;;;;;11.75;7.57;;;;;;;;;;5020644;28;20087;-84
2022/03/12 11:57:38;;;;;;;9.25;7.43;;;;;;;;;;5032505;28;20024;-85
2022/03/12 12:00:11;;;;;;;8.10;7.07;;;;;;;;;;5025332;28;20081;-84
2022/03/12 12:02:38;;;;;;;7.80;6.77;;;;;;;;;;5009807;28;20053;-84
2022/03/12 12:05:10;;;;;;;8.90;7.28;;;;;;;;;;4996491;28;20294;-84
2022/03/12 12:07:36;;;;;;;9.20;7.20;;;;;;;;;;5005106;28;20124;-84
2022/03/12 12:10:24;;;;;;;9.40;7.55;;;;;;;;;;5015533;28;20041;-85
2022/03/12 12:12:51;;;;;;;8.45;7.57;;;;;;;;;;4992074;28;20103;-85
2022/03/12 12:15:20;;;;;;;8.55;7.57;;;;;;;;;;5017620;28;20041;-84
2022/03/12 12:17:46;;;;;;;7.95;7.15;;;;;;;;;;5001062;28;20052;-84
2022/03/12 12:20:16;;;;;;;9.88;6.65;;;;;;;;;;5001011;28;20037;-84
2022/03/12 12:22:42;;;;;;;9.25;7.55;;;;;;;;;;5001263;28;20113;-86
2022/03/12 12:25:09;;;;;;;8.93;7.10;;;;;;;;;;5001598;28;20042;-87
2022/03/12 12:27:47;;;;;;;8.27;7.47;;;;;;;;;;5017861;28;20041;-86
2022/03/12 12:30:15;;;;;;;8.30;7.32;;;;;;;;;;5001028;28;20053;-87
2022/03/12 12:32:50;;;;;;;9.77;7.85;;;;;;;;;;5009595;28;20037;-86
2022/03/12 12:35:17;;;;;;;8.10;6.93;;;;;;;;;;4999499;28;20200;-86
2022/03/12 12:37:57;;;;;;;8.80;7.22;;;;;;;;;;5012248;28;20053;-87
2022/03/12 12:40:31;;;;;;;8.38;7.57;;;;;;;;;;5015566;28;20400;-87
2022/03/12 12:42:58;;;;;;;8.82;7.43;;;;;;;;;;5013814;28;20056;-87
2022/03/12 12:45:29;;;;;;;10.00;7.90;;;;;;;;;;4996705;28;20034;-87
2022/03/12 12:48:09;;;;;;;8.90;7.60;;;;;;;;;;5001454;28;20119;-88
2022/03/12 12:50:36;;;;;;;9.75;7.88;;;;;;;;;;5012877;28;20041;-85
2022/03/12 12:53:28;;;;;;;9.18;8.13;;;;;;;;;;5011321;28;20037;-87
2022/03/12 12:56:17;;;;;;;8.18;7.20;;;;;;;;;;4990692;28;20140;-87
2022/03/12 12:58:53;;;;;;;9.40;7.45;;;;;;;;;;4992179;28;20164;-86
2022/03/12 13:01:20;;;;;;;8.63;7.47;;;;;;;;;;4994200;28;20034;-87
2022/03/12 13:03:47;;;;;;;10.27;7.43;;;;;;;;;;5014348;28;20541;-87
2022/03/12 13:06:33;;;;;;;11.20;7.95;;;;;;;;;;5009522;28;20116;-86
2022/03/12 13:09:02;;;;;;;8.20;7.00;;;;;;;;;;4989066;28;20125;-87
2022/03/12 13:11:29;;;;;;;9.15;7.65;;;;;;;;;;4994332;28;20041;-86
2022/03/12 13:13:56;;;;;;;7.55;6.75;;;;;;;;;;5000608;28;20458;-87
2022/03/12 13:16:22;;;;;;;9.85;7.53;;;;;;;;;;5018051;28;20042;-87
2022/03/12 13:18:48;;;;;;;8.50;7.65;;;;;;;;;;5036214;28;20455;-86
2022/03/12 13:21:25;;;;;;;9.63;7.75;;;;;;;;;;5007457;28;20038;-86
2022/03/12 13:23:51;;;;;;;8.85;7.95;;;;;;;;;;5036590;28;20037;-83
2022/03/12 13:26:18;;;;;;;8.90;7.28;;;;;;;;;;5010717;28;20021;-86
2022/03/12 13:28:49;;;;;;;8.85;7.15;;;;;;;;;;5024568;28;20045;-86
2022/03/12 13:31:16;;;;;;;7.28;6.30;;;;;;;;;;5009171;28;20061;-86
2022/03/12 13:33:42;;;;;;;9.85;6.90;;;;;;;;;;5031698;28;20072;-85
2022/03/12 13:36:18;;;;;;;7.97;6.47;;;;;;;;;;5019568;28;20045;-86
2022/03/12 13:38:44;;;;;;;7.97;6.35;;;;;;;;;;5019903;28;20037;-86
2022/03/12 13:41:14;;;;;;;8.40;6.65;;;;;;;;;;5019837;28;20039;-86
2022/03/12 13:43:41;;;;;;;9.80;7.32;;;;;;;;;;5005322;28;20496;-86
2022/03/12 13:46:07;;;;;;;8.40;7.10;;;;;;;;;;5017959;28;20080;-86
2022/03/12 13:48:34;;;;;;;9.32;6.60;;;;;;;;;;5018404;28;20037;-86
2022/03/12 13:51:00;;;;;;;8.90;6.63;;;;;;;;;;5020544;28;20488;-86
2022/03/12 13:53:30;;;;;;;9.25;6.28;;;;;;;;;;5025403;28;20025;-85
2022/03/12 13:56:06;;;;;;;7.70;6.40;;;;;;;;;;5038547;28;20052;-85
2022/03/12 13:58:32;;;;;;;7.53;5.38;;;;;;;;;;5039800;28;20033;-84
2022/03/12 14:00:59;;;;;;;6.28;5.35;;;;;;;;;;5039930;28;20098;-85
2022/03/12 14:03:29;;;;;;;6.90;6.03;;;;;;;;;;5045923;28;20515;-86
2022/03/12 14:05:56;;;;;;;7.43;5.07;;;;;;;;;;5002916;28;20045;-86
2022/03/12 14:08:24;;;;;;;7.28;5.95;;;;;;;;;;5017566;28;20071;-85
2022/03/12 14:10:52;;;;;;;5.85;5.15;;;;;;;;;;5040534;28;20045;-83
2022/03/12 14:13:20;;;;;;;6.53;4.95;;;;;;;;;;5014752;28;20095;-85
2022/03/12 14:15:46;;;;;;;6.32;5.35;;;;;;;;;;5019358;28;20041;-86
2022/03/12 14:18:20;;;;;;;5.68;4.40;;;;;;;;;;5036381;28;20111;-86
2022/03/12 14:20:51;;;;;;;7.05;5.00;;;;;;;;;;5001632;28;20050;-86
2022/03/12 14:23:20;;;;;;;5.57;5.07;;;;;;;;;;5036023;28;20042;-86
2022/03/12 14:25:48;;;;;;;8.70;5.07;;;;;;;;;;5018367;28;20494;-86
2022/03/12 14:28:14;;;;;;;8.15;4.90;;;;;;;;;;5003014;28;20132;-86
2022/03/12 14:30:41;;;;;;;7.22;4.95;;;;;;;;;;5002803;28;20041;-87
2022/03/12 14:33:07;;;;;;;6.55;5.03;;;;;;;;;;5002806;28;20053;-85
2022/03/12 14:35:34;;;;;;;5.97;5.07;;;;;;;;;;5019453;28;20099;-85
2022/03/12 14:38:01;;;;;;;6.07;5.22;;;;;;;;;;5003674;28;20042;-87
2022/03/12 14:40:28;;;;;;;5.75;5.03;;;;;;;;;;5014745;28;20120;-87
2022/03/12 14:42:55;;;;;;;5.28;4.78;;;;;;;;;;5029803;28;20048;-87